Impacts TAF Board INFO
FOR SITUATIONAL AWARENESS. NOT TO BE USED FOR FLIGHT PLANNING PURPOSES.
IDs:

KJFK - New York/Kennedy Int, NY, US

Issued at 0322 UTC 25 Apr 2017
Updated at 0441 UTC 25 Apr 2017
Potential Impact None Slight Moderate High
Time0351Z 25/05Z 25/06Z 25/07Z 25/08Z 25/09Z 25/10Z 25/11Z 25/12Z 25/13Z 25/14Z 25/15Z 25/16Z 25/17Z>>
Type OBS PRVL
  [TEMP]  
PRVL
  [TEMP]  
PRVL PRVL PRVL PRVL PRVL PRVL PRVL PRVL PRVL PRVL PRVL
VIS 10 >6 >6 6 6 3 3 3 3 3 1 1 1 1
CIG 60 60
  [30]  
60
  [30]  
15 15 7 7 7 7 7 6 6 6 6
Cover OVC OVC
  [BKN]  
OVC
  [BKN]  
BKN BKN OVC OVC OVC OVC OVC OVC OVC OVC OVC
FltCat VFR VFR
  [MVFR]  
VFR
  [MVFR]  
MVFR MVFR IFR IFR IFR IFR IFR IFR IFR IFR IFR
WX -- -RA
  [--]  
-RA
  [--]  
-RA BR -RA BR -RA BR -RA BR -RA BR -RA BR -RA BR -RA BR -RA BR -RA BR -RA BR
WDir 60 80
[80]
80
[80]
70 70 60 60 60 60 60 60 60 60 60
WSpd 7 12
  [12]  
12
  [12]  
12 12 14 14 14 14 14 20 20 20 20
WGst -- --
  [--]  
--
  [--]  
-- -- 21 21 21 21 21 26 26 26 26

Raw TAF
KJFK 250322Z 2503/2606 08012KT P6SM -RA OVC060
  TEMPO 2505/2507 SCT015 BKN030
  FM250700 07012KT 6SM -RA BR SCT007 BKN015
  FM250900 06014G21KT 3SM -RA BR BKN007 OVC010
  FM251400 06020G26KT 1SM -RA BR OVC006
  FM260000 06016KT 1SM -RA OVC004


Raw METAR
KJFK 250351Z 06007KT 10SM FEW012 OVC060 12/09 A3014 RMK AO2 RAE39 SLP204 P0000 T01170094
KJFK 250251Z 08011KT 10SM -RA OVC070 12/08 A3014 RMK AO2 RAB50 SLP206 P0000 60000 T01220078 53001
KJFK 250151Z 08007KT 10SM BKN070 OVC110 12/07 A3014 RMK AO2 SLP206 T01220067

METAR Board
Radar Display
Forecast Discussion

FOR SITUATIONAL AWARENESS. NOT TO BE USED FOR FLIGHT PLANNING PURPOSES.

Page loaded:  04:41 UTC  |   09:41 PM Pacific  |   10:41 PM Mountain  |   11:41 PM Central  |   12:41 AM Eastern

 

ADVISORIES

FORECASTS

FORECASTS

OBSERVATIONS

USER TOOLS

ABOUT US